createdAt,value
2023-03-21T00:00:40.938Z,23.40
2023-03-21T00:03:08.853Z,17.57
2023-03-21T00:05:41.144Z,26.57
2023-03-21T00:08:08.028Z,22.07
2023-03-21T00:10:41.186Z,25.40
2023-03-21T00:13:13.058Z,19.90
2023-03-21T00:16:01.943Z,26.53
2023-03-21T00:18:31.615Z,21.67
2023-03-21T00:21:25.679Z,23.23
2023-03-21T00:23:46.688Z,27.00
2023-03-21T00:26:14.341Z,23.00
2023-03-21T00:28:42.396Z,25.80
2023-03-21T00:31:09.913Z,25.83
2023-03-21T00:33:38.830Z,22.97
2023-03-21T00:36:06.978Z,26.33
2023-03-21T00:38:34.497Z,22.67
2023-03-21T00:41:11.004Z,19.37
2023-03-21T00:43:44.200Z,18.63
2023-03-21T00:46:10.922Z,21.23
2023-03-21T00:48:37.653Z,22.33
2023-03-21T00:51:15.407Z,21.33
2023-03-21T00:53:42.382Z,19.20
2023-03-21T00:56:09.509Z,24.60
2023-03-21T00:58:36.328Z,25.40
2023-03-21T01:01:04.389Z,27.73
2023-03-21T01:03:31.032Z,19.57
2023-03-21T01:06:04.807Z,21.10
2023-03-21T01:08:51.650Z,25.23
2023-03-21T01:11:28.304Z,21.77
2023-03-21T01:14:07.115Z,18.93
2023-03-21T01:16:38.431Z,25.50
2023-03-21T01:19:11.912Z,24.47
2023-03-21T01:21:41.917Z,18.20
2023-03-21T01:24:08.720Z,24.10
2023-03-21T01:26:37.305Z,16.60
2023-03-21T01:29:05.344Z,16.77
2023-03-21T01:31:31.968Z,23.13
2023-03-21T01:33:58.656Z,25.40
2023-03-21T01:36:26.810Z,19.07
2023-03-21T01:38:54.342Z,18.50
2023-03-21T01:41:26.335Z,18.73
2023-03-21T01:43:55.521Z,22.33
2023-03-21T01:46:49.576Z,19.93
2023-03-21T01:49:28.999Z,21.80
2023-03-21T01:52:06.608Z,16.60
2023-03-21T01:54:41.062Z,16.60
2023-03-21T01:57:14.022Z,21.83
2023-03-21T01:59:49.932Z,21.53
2023-03-21T02:02:23.840Z,15.80
2023-03-21T02:04:55.833Z,19.00
2023-03-21T02:07:29.190Z,14.77
2023-03-21T02:09:57.792Z,18.37
2023-03-21T02:12:26.191Z,21.53
2023-03-21T02:14:54.115Z,22.50
2023-03-21T02:17:28.466Z,21.20
2023-03-21T02:20:16.404Z,22.53
2023-03-21T02:23:04.993Z,16.23
2023-03-21T02:26:03.855Z,18.30
2023-03-21T02:28:39.624Z,23.23
2023-03-21T02:31:39.571Z,16.27
2023-03-21T02:34:27.272Z,21.37
2023-03-21T02:37:02.762Z,20.07
2023-03-21T02:39:40.959Z,17.27
2023-03-21T02:42:16.580Z,22.53
2023-03-21T02:44:43.158Z,34.10
2023-03-21T02:47:18.210Z,22.13
2023-03-21T02:49:55.551Z,22.13
2023-03-21T02:52:38.600Z,24.53
2023-03-21T02:55:14.015Z,15.77
2023-03-21T02:57:43.949Z,18.00
2023-03-21T03:00:17.825Z,17.93
2023-03-21T03:02:45.397Z,23.87
2023-03-21T03:05:37.221Z,26.33
2023-03-21T03:08:41.207Z,22.37
2023-03-21T03:11:33.332Z,21.50
2023-03-21T03:14:50.067Z,26.03
2023-03-21T03:17:45.522Z,18.87
2023-03-21T03:20:20.878Z,20.93
2023-03-21T03:22:57.587Z,22.30
2023-03-21T03:25:42.470Z,25.13
2023-03-21T03:28:11.394Z,23.03
2023-03-21T03:30:46.608Z,25.97
2023-03-21T03:33:17.795Z,18.20
2023-03-21T03:35:55.842Z,28.30
2023-03-21T03:38:27.673Z,22.13
2023-03-21T03:41:07.023Z,17.73
2023-03-21T03:43:39.633Z,22.67
2023-03-21T03:46:18.778Z,29.33
2023-03-21T03:48:54.186Z,24.40
2023-03-21T03:51:36.243Z,20.10
2023-03-21T03:54:07.093Z,22.33
2023-03-21T03:56:33.801Z,24.03
2023-03-21T03:59:04.313Z,27.10
2023-03-21T04:01:31.240Z,26.50
2023-03-21T04:04:10.602Z,25.63
2023-03-21T04:06:39.249Z,28.70
2023-03-21T04:09:18.812Z,23.47
2023-03-21T04:11:47.494Z,24.03
2023-03-21T04:14:14.654Z,25.53
2023-03-21T04:16:41.291Z,24.03
2023-03-21T04:19:07.875Z,18.83
2023-03-21T04:21:34.461Z,21.20
2023-03-21T04:24:01.190Z,22.83
2023-03-21T04:26:32.856Z,19.87
2023-03-21T04:29:00.792Z,24.43
2023-03-21T04:31:28.531Z,22.23
2023-03-21T04:33:55.904Z,22.67
2023-03-21T04:36:27.287Z,18.83
2023-03-21T04:38:54.051Z,22.73
2023-03-21T04:41:20.828Z,21.73
2023-03-21T04:43:47.511Z,26.57
2023-03-21T04:46:14.161Z,19.70
2023-03-21T04:48:41.079Z,19.30
2023-03-21T04:51:07.713Z,15.97
2023-03-21T04:53:34.268Z,18.50
2023-03-21T04:56:00.839Z,21.30
2023-03-21T04:58:30.415Z,23.20
2023-03-21T05:00:57.287Z,16.20
2023-03-21T05:03:24.790Z,17.80
2023-03-21T05:05:51.381Z,18.67
2023-03-21T05:08:18.067Z,17.70
2023-03-21T05:10:44.650Z,21.87
2023-03-21T05:13:11.305Z,19.73
2023-03-21T05:15:38.282Z,16.90
2023-03-21T05:18:10.238Z,19.57
2023-03-21T05:20:43.750Z,18.90
2023-03-21T05:23:11.657Z,18.17
2023-03-21T05:25:39.837Z,21.23
2023-03-21T05:28:07.619Z,19.40
2023-03-21T05:30:34.466Z,16.33
2023-03-21T05:33:01.253Z,18.10
2023-03-21T05:35:28.315Z,15.40
2023-03-21T05:37:55.396Z,18.90
2023-03-21T05:40:22.083Z,17.30
2023-03-21T05:42:48.967Z,14.90
2023-03-21T05:45:18.712Z,23.60
2023-03-21T05:47:45.342Z,15.17
2023-03-21T05:50:13.246Z,15.53
2023-03-21T05:52:40.469Z,14.53
2023-03-21T05:55:07.431Z,19.50
2023-03-21T05:57:39.006Z,16.03
2023-03-21T06:00:08.128Z,15.40
2023-03-21T06:02:34.826Z,17.13
2023-03-21T06:05:01.481Z,22.57
2023-03-21T06:07:28.071Z,15.30
2023-03-21T06:09:54.771Z,17.93
2023-03-21T06:12:21.347Z,17.47
2023-03-21T06:14:47.921Z,14.20
2023-03-21T06:17:14.626Z,23.53
2023-03-21T06:19:41.259Z,11.97
2023-03-21T06:22:07.931Z,15.53
2023-03-21T06:24:34.590Z,13.37
2023-03-21T06:27:03.866Z,13.67
2023-03-21T06:29:31.135Z,15.83
2023-03-21T06:31:57.687Z,16.73
2023-03-21T06:34:24.450Z,20.60
2023-03-21T06:36:54.697Z,14.20
2023-03-21T06:39:21.609Z,19.57
2023-03-21T06:41:48.200Z,13.57
2023-03-21T06:44:14.858Z,14.07
2023-03-21T06:46:41.759Z,17.50
2023-03-21T06:49:08.392Z,16.60
2023-03-21T06:51:35.198Z,16.17
2023-03-21T06:54:01.818Z,14.87
2023-03-21T06:56:28.422Z,17.97
2023-03-21T06:58:55.028Z,19.93
2023-03-21T07:01:22.107Z,15.33
2023-03-21T07:03:48.823Z,17.53
2023-03-21T07:06:16.488Z,16.67
2023-03-21T07:08:43.090Z,13.97
2023-03-21T07:11:09.989Z,16.37
2023-03-21T07:13:36.747Z,12.50
2023-03-21T07:16:03.806Z,17.53
2023-03-21T07:18:30.966Z,19.73
2023-03-21T07:20:58.163Z,18.53
2023-03-21T07:23:26.002Z,20.23
2023-03-21T07:25:53.248Z,18.80
2023-03-21T07:28:20.386Z,17.23
2023-03-21T07:30:53.708Z,19.47
2023-03-21T07:33:20.582Z,17.03
2023-03-21T07:35:47.147Z,17.80
2023-03-21T07:38:16.694Z,17.27
2023-03-21T07:40:43.776Z,17.37
2023-03-21T07:43:10.519Z,18.87
2023-03-21T07:45:37.539Z,17.67
2023-03-21T07:48:04.752Z,22.60
2023-03-21T07:50:31.594Z,18.43
2023-03-21T07:52:58.155Z,16.73
2023-03-21T07:55:24.827Z,15.13
2023-03-21T07:57:52.008Z,13.33
2023-03-21T08:00:24.759Z,19.03
2023-03-21T08:02:58.864Z,14.27
2023-03-21T08:05:28.704Z,14.60
2023-03-21T08:07:55.727Z,13.83
2023-03-21T08:10:22.298Z,16.87
2023-03-21T08:12:49.162Z,13.30
2023-03-21T08:15:16.016Z,11.40
2023-03-21T08:17:45.400Z,11.37
2023-03-21T08:20:15.739Z,14.90
2023-03-21T08:22:43.535Z,12.27
2023-03-21T08:25:13.750Z,20.40
2023-03-21T08:27:42.050Z,17.03
2023-03-21T08:30:12.924Z,13.67
2023-03-21T08:32:42.141Z,12.57
2023-03-21T08:35:10.851Z,25.00
2023-03-21T08:37:38.334Z,12.00
2023-03-21T08:40:11.191Z,14.30
2023-03-21T08:42:38.658Z,10.23
2023-03-21T08:45:06.504Z,14.53
2023-03-21T08:47:33.400Z,11.60
2023-03-21T08:50:00.153Z,9.60
2023-03-21T08:52:27.673Z,13.60
2023-03-21T08:54:54.750Z,14.77
2023-03-21T08:57:21.611Z,10.93
2023-03-21T08:59:48.182Z,10.63
2023-03-21T09:02:16.703Z,13.63
2023-03-21T09:04:44.701Z,17.93
2023-03-21T09:07:14.245Z,14.03
2023-03-21T09:09:41.656Z,15.60
2023-03-21T09:12:10.344Z,9.63
2023-03-21T09:14:36.981Z,9.63
2023-03-21T09:17:03.586Z,11.30
2023-03-21T09:19:31.793Z,20.93
2023-03-21T09:21:58.561Z,14.43
2023-03-21T09:24:26.295Z,15.40
2023-03-21T09:26:52.933Z,15.83
2023-03-21T09:29:21.219Z,16.30
2023-03-21T09:31:48.256Z,7.80
2023-03-21T09:34:15.623Z,8.07
2023-03-21T09:36:44.102Z,17.00
2023-03-21T09:39:11.855Z,8.60
2023-03-21T09:41:45.138Z,8.47
2023-03-21T09:44:52.660Z,14.13
2023-03-21T09:47:32.927Z,9.00
2023-03-21T09:50:13.783Z,7.93
2023-03-21T09:52:50.578Z,9.67
2023-03-21T09:55:22.330Z,8.30
2023-03-21T09:57:56.041Z,10.93
2023-03-21T10:00:29.928Z,7.93
2023-03-21T10:03:06.644Z,9.87
2023-03-21T10:05:34.527Z,12.47
2023-03-21T10:08:24.350Z,11.83
2023-03-21T10:10:55.777Z,8.47
2023-03-21T10:13:28.869Z,9.20
2023-03-21T10:16:01.943Z,10.43
2023-03-21T10:18:31.004Z,9.57
2023-03-21T10:20:58.172Z,15.93
2023-03-21T10:23:29.496Z,12.27
2023-03-21T10:25:59.805Z,12.37
2023-03-21T10:28:50.002Z,13.03
2023-03-21T10:31:21.462Z,9.03
2023-03-21T10:33:50.207Z,11.63
2023-03-21T10:36:27.799Z,14.63
2023-03-21T10:39:01.652Z,14.33
2023-03-21T10:41:28.372Z,8.37
2023-03-21T10:44:14.565Z,9.60
2023-03-21T10:46:58.850Z,10.37
2023-03-21T10:49:26.691Z,11.97
2023-03-21T10:51:59.303Z,11.27
2023-03-21T10:54:31.541Z,12.30
2023-03-21T10:57:05.819Z,11.43
2023-03-21T10:59:40.940Z,11.30
2023-03-21T11:02:25.143Z,13.63
2023-03-21T11:04:54.379Z,12.77
2023-03-21T11:07:23.517Z,13.17
2023-03-21T11:10:01.060Z,11.03
2023-03-21T11:12:37.140Z,11.77
2023-03-21T11:15:21.697Z,13.63
2023-03-21T11:17:48.301Z,8.63
2023-03-21T11:20:18.981Z,10.00
2023-03-21T11:22:47.658Z,10.57
2023-03-21T11:25:35.037Z,8.37
2023-03-21T11:28:08.444Z,21.20
2023-03-21T11:30:48.689Z,11.57
2023-03-21T11:33:18.540Z,9.20
2023-03-21T11:36:01.949Z,11.53
2023-03-21T11:39:00.159Z,10.57
2023-03-21T11:41:32.172Z,5.97
2023-03-21T11:44:01.009Z,7.73
2023-03-21T11:46:30.720Z,7.60
2023-03-21T11:48:59.258Z,6.63
2023-03-21T11:51:51.016Z,32.30
2023-03-21T11:54:53.421Z,10.17
2023-03-21T11:57:40.759Z,6.20
2023-03-21T12:00:15.244Z,10.43
2023-03-21T12:03:12.672Z,12.20
2023-03-21T12:06:02.396Z,8.53
2023-03-21T12:09:03.859Z,7.50
2023-03-21T12:11:59.219Z,9.07
2023-03-21T12:14:46.497Z,8.37
2023-03-21T12:17:27.312Z,9.87
2023-03-21T12:20:12.593Z,7.87
2023-03-21T12:22:48.826Z,11.70
2023-03-21T12:25:18.956Z,11.10
2023-03-21T12:28:03.613Z,7.70
2023-03-21T12:30:30.360Z,12.97
2023-03-21T12:33:33.812Z,8.03
2023-03-21T12:36:22.436Z,7.63
2023-03-21T12:39:24.714Z,7.97
2023-03-21T12:42:14.715Z,9.07
2023-03-21T12:44:47.789Z,5.77
2023-03-21T12:47:27.742Z,7.13
2023-03-21T12:50:15.133Z,10.00
2023-03-21T12:52:46.043Z,8.70
2023-03-21T12:55:25.570Z,5.23
2023-03-21T12:58:18.156Z,10.73
2023-03-21T13:00:44.945Z,9.40
2023-03-21T13:03:30.585Z,6.30
2023-03-21T13:06:07.012Z,8.23
2023-03-21T13:09:05.781Z,9.20
2023-03-21T13:11:33.781Z,5.87
2023-03-21T13:14:20.138Z,9.60
2023-03-21T13:17:01.899Z,8.40
2023-03-21T13:19:40.516Z,8.40
2023-03-21T13:22:24.719Z,5.20
2023-03-21T13:25:04.958Z,5.80
2023-03-21T13:27:36.862Z,6.40
2023-03-21T13:30:17.246Z,6.00
2023-03-21T13:32:46.509Z,5.20
2023-03-21T13:35:27.368Z,5.57
2023-03-21T13:37:58.285Z,5.87
2023-03-21T13:40:51.772Z,8.00
2023-03-21T13:43:42.893Z,6.50
2023-03-21T13:46:11.341Z,7.27
2023-03-21T13:49:02.127Z,5.00
2023-03-21T13:51:28.692Z,4.50
2023-03-21T13:54:07.483Z,4.27
2023-03-21T13:57:04.046Z,5.40
2023-03-21T13:59:43.024Z,10.53
2023-03-21T14:02:18.500Z,5.00
2023-03-21T14:05:00.235Z,4.70
2023-03-21T14:07:34.483Z,4.33
2023-03-21T14:10:20.062Z,6.60
2023-03-21T14:12:48.359Z,5.77
2023-03-21T14:15:34.297Z,5.90
2023-03-21T14:18:16.054Z,4.67
2023-03-21T14:20:57.089Z,4.60
2023-03-21T14:23:24.285Z,4.13
2023-03-21T14:25:51.594Z,4.97
2023-03-21T14:28:32.676Z,6.30
2023-03-21T14:31:00.798Z,6.50
2023-03-21T14:33:36.570Z,9.20
2023-03-21T14:36:13.734Z,5.10
2023-03-21T14:38:41.709Z,4.40
2023-03-21T14:41:30.090Z,5.73
2023-03-21T14:44:25.276Z,8.23
2023-03-21T14:47:22.624Z,3.93
2023-03-21T14:49:50.267Z,8.50
2023-03-21T14:52:23.286Z,3.90
2023-03-21T14:54:50.909Z,5.00
2023-03-21T14:57:28.606Z,3.37
2023-03-21T14:59:59.113Z,9.77
2023-03-21T15:02:30.666Z,7.03
2023-03-21T15:05:05.254Z,9.33
2023-03-21T15:07:34.601Z,3.83
2023-03-21T15:10:05.710Z,7.20
2023-03-21T15:12:33.016Z,4.00
2023-03-21T15:15:01.322Z,5.03
2023-03-21T15:17:28.930Z,9.63
2023-03-21T15:19:55.537Z,5.50
2023-03-21T15:22:30.311Z,5.43
2023-03-21T15:25:01.335Z,6.50
2023-03-21T15:27:30.771Z,7.80
2023-03-21T15:29:57.439Z,6.17
2023-03-21T15:32:27.312Z,5.13
2023-03-21T15:34:56.759Z,4.97
2023-03-21T15:37:28.664Z,4.37
2023-03-21T15:40:14.375Z,6.80
2023-03-21T15:42:41.559Z,4.27
2023-03-21T15:45:22.421Z,4.90
2023-03-21T15:47:49.116Z,5.23
2023-03-21T15:50:26.634Z,5.67
2023-03-21T15:52:54.590Z,12.90
2023-03-21T15:55:35.193Z,5.83
2023-03-21T15:58:09.764Z,6.43
2023-03-21T16:00:41.461Z,4.83
2023-03-21T16:03:16.934Z,5.07
2023-03-21T16:06:00.765Z,3.83
2023-03-21T16:08:32.394Z,4.50
2023-03-21T16:11:15.658Z,5.83
2023-03-21T16:13:42.286Z,5.10
2023-03-21T16:16:17.674Z,6.53
2023-03-21T16:18:44.297Z,6.80
2023-03-21T16:21:13.472Z,10.10
2023-03-21T16:23:40.267Z,4.50
2023-03-21T16:26:10.787Z,5.40
2023-03-21T16:28:37.360Z,7.10
2023-03-21T16:31:04.056Z,8.60
2023-03-21T16:33:30.633Z,6.97
2023-03-21T16:35:57.557Z,5.97
2023-03-21T16:38:24.348Z,6.13
2023-03-21T16:40:51.546Z,7.23
2023-03-21T16:43:18.153Z,6.63
2023-03-21T16:45:44.746Z,4.87
2023-03-21T16:48:16.349Z,4.60
2023-03-21T16:50:47.049Z,8.57
2023-03-21T16:53:13.733Z,8.27
2023-03-21T16:55:40.430Z,8.30
2023-03-21T16:58:07.028Z,5.00
2023-03-21T17:00:33.991Z,4.63
2023-03-21T17:03:02.653Z,9.57
2023-03-21T17:05:32.676Z,7.30
2023-03-21T17:08:02.770Z,7.20
2023-03-21T17:10:31.395Z,6.07
2023-03-21T17:12:58.142Z,7.27
2023-03-21T17:15:25.077Z,6.67
2023-03-21T17:17:51.940Z,3.10
2023-03-21T17:20:41.430Z,10.97
2023-03-21T17:23:08.339Z,6.80
2023-03-21T17:25:36.395Z,7.00
2023-03-21T17:28:03.096Z,7.00
2023-03-21T17:30:35.679Z,4.47
2023-03-21T17:33:02.676Z,6.17
2023-03-21T17:35:29.382Z,7.23
2023-03-21T17:37:58.267Z,7.40
2023-03-21T17:40:29.927Z,7.40
2023-03-21T17:42:57.817Z,6.00
2023-03-21T17:45:24.966Z,8.40
2023-03-21T17:47:51.937Z,5.70
2023-03-21T17:50:21.283Z,8.50
2023-03-21T17:52:50.665Z,7.60
2023-03-21T17:55:20.910Z,8.60
2023-03-21T17:57:48.984Z,7.40
2023-03-21T18:00:29.262Z,7.27
2023-03-21T18:02:57.090Z,5.43
2023-03-21T18:05:24.791Z,7.40
2023-03-21T18:08:09.656Z,8.13
2023-03-21T18:10:37.539Z,7.00
2023-03-21T18:13:04.223Z,5.87
2023-03-21T18:15:31.248Z,7.20
2023-03-21T18:17:58.304Z,5.47
2023-03-21T18:20:50.518Z,7.90
2023-03-21T18:23:18.507Z,6.70
2023-03-21T18:25:45.176Z,5.80
2023-03-21T18:28:12.762Z,11.33
2023-03-21T18:33:28.179Z,8.10
2023-03-21T18:35:59.210Z,7.73
2023-03-21T18:38:27.365Z,8.80
2023-03-21T18:40:54.499Z,7.70
2023-03-21T18:46:08.533Z,5.30
2023-03-21T18:48:35.779Z,7.83
2023-03-21T18:51:02.792Z,8.37
2023-03-21T18:53:29.868Z,8.90
2023-03-21T18:55:57.386Z,6.87
2023-03-21T18:58:24.699Z,7.40
2023-03-21T19:00:53.346Z,5.90
2023-03-21T19:03:34.164Z,12.07
2023-03-21T19:06:03.702Z,5.67
2023-03-21T19:08:30.971Z,7.37
2023-03-21T19:11:00.248Z,8.13
2023-03-21T19:13:30.038Z,8.23
2023-03-21T19:15:57.087Z,6.10
2023-03-21T19:18:41.659Z,8.10
2023-03-21T19:21:10.334Z,8.87
2023-03-21T19:24:07.889Z,10.60
2023-03-21T19:26:25.409Z,10.80
2023-03-21T19:28:52.604Z,7.67
2023-03-21T19:31:20.790Z,16.50
2023-03-21T19:33:48.020Z,12.70
2023-03-21T19:36:21.915Z,9.30
2023-03-21T19:38:49.206Z,11.13
2023-03-21T19:41:16.248Z,12.23
2023-03-21T19:43:53.321Z,11.30
2023-03-21T19:46:24.462Z,12.87
2023-03-21T19:48:51.186Z,10.73
2023-03-21T19:51:28.342Z,14.77
2023-03-21T19:53:56.343Z,8.77
2023-03-21T19:56:26.437Z,9.57
2023-03-21T19:58:53.930Z,8.43
2023-03-21T20:01:20.988Z,9.07
2023-03-21T20:03:47.711Z,9.03
2023-03-21T20:06:14.584Z,9.37
2023-03-21T20:11:27.805Z,7.37
2023-03-21T20:13:54.465Z,8.90
2023-03-21T20:16:21.249Z,15.47
2023-03-21T20:18:47.901Z,10.90
2023-03-21T20:21:18.144Z,9.13
2023-03-21T20:23:50.702Z,11.40
2023-03-21T20:26:18.266Z,14.70
2023-03-21T20:29:00.245Z,14.13
2023-03-21T20:31:35.212Z,11.40
2023-03-21T20:34:02.344Z,13.60
2023-03-21T20:36:39.781Z,13.03
2023-03-21T20:39:06.946Z,11.13
2023-03-21T20:41:33.552Z,11.07
2023-03-21T20:46:49.766Z,10.47
2023-03-21T20:49:16.762Z,22.13
2023-03-21T20:54:30.372Z,12.97
2023-03-21T20:56:57.154Z,12.20
2023-03-21T20:59:27.695Z,11.57
2023-03-21T21:01:57.071Z,9.63
2023-03-21T21:04:44.851Z,11.03
2023-03-21T21:07:15.853Z,8.73
2023-03-21T21:09:43.834Z,15.10
2023-03-21T21:12:11.486Z,13.27
2023-03-21T21:14:38.812Z,8.10
2023-03-21T21:17:23.831Z,11.70
2023-03-21T21:19:52.977Z,13.80
2023-03-21T21:22:20.127Z,12.60
2023-03-21T21:24:46.719Z,12.23
2023-03-21T21:27:13.750Z,9.90
2023-03-21T21:29:43.071Z,11.80
2023-03-21T21:32:09.686Z,13.70
2023-03-21T21:34:37.033Z,16.53
2023-03-21T21:37:03.948Z,14.20
2023-03-21T21:39:36.365Z,12.53
2023-03-21T21:42:03.722Z,15.47
2023-03-21T21:44:31.054Z,15.37
2023-03-21T21:46:57.702Z,15.80
2023-03-21T21:49:24.270Z,14.70
2023-03-21T21:51:50.945Z,11.80
2023-03-21T21:54:18.097Z,13.00
2023-03-21T21:56:48.213Z,11.00
2023-03-21T21:59:18.424Z,12.00
2023-03-21T22:01:46.486Z,12.63
2023-03-21T22:04:14.287Z,13.27
2023-03-21T22:06:42.187Z,15.60
2023-03-21T22:09:08.840Z,10.13
2023-03-21T22:11:35.685Z,16.37
2023-03-21T22:14:02.876Z,12.20
2023-03-21T22:16:29.652Z,8.77
2023-03-21T22:18:56.291Z,12.53
2023-03-21T22:21:23.157Z,8.77
2023-03-21T22:23:49.754Z,11.93
2023-03-21T22:26:16.596Z,10.67
2023-03-21T22:28:43.580Z,11.20
2023-03-21T22:31:12.627Z,10.90
2023-03-21T22:33:39.308Z,9.07
2023-03-21T22:36:06.169Z,9.27
2023-03-21T22:38:34.456Z,10.00
2023-03-21T22:41:03.010Z,9.60
2023-03-21T22:43:29.784Z,9.33
2023-03-21T22:45:56.497Z,11.87
2023-03-21T22:48:23.202Z,8.27
2023-03-21T22:50:49.845Z,6.90
2023-03-21T22:53:16.454Z,8.53
2023-03-21T22:55:42.998Z,7.67
2023-03-21T22:58:09.592Z,8.83
2023-03-21T23:00:36.529Z,11.80
2023-03-21T23:03:12.310Z,16.50
2023-03-21T23:05:41.073Z,9.60
2023-03-21T23:08:08.033Z,7.70
2023-03-21T23:10:38.041Z,10.90
2023-03-21T23:13:04.990Z,10.37
2023-03-21T23:15:31.545Z,9.33
2023-03-21T23:17:58.170Z,6.70
2023-03-21T23:20:24.768Z,8.77
2023-03-21T23:22:51.335Z,6.03
2023-03-21T23:25:20.297Z,10.07
2023-03-21T23:27:47.591Z,9.67
2023-03-21T23:30:14.378Z,10.53
2023-03-21T23:32:41.082Z,6.50
2023-03-21T23:35:08.657Z,10.47
2023-03-21T23:37:35.256Z,9.37
2023-03-21T23:40:02.136Z,7.07
2023-03-21T23:42:30.450Z,11.20
2023-03-21T23:44:57.103Z,9.00
2023-03-21T23:47:23.836Z,10.97
2023-03-21T23:49:52.635Z,8.53
2023-03-21T23:52:19.267Z,7.70
2023-03-21T23:54:46.086Z,9.57
2023-03-21T23:57:12.717Z,10.27
2023-03-21T23:59:39.302Z,9.73
